Time;durP1;ratioP1;P1;durP2;ratioP2;P2;SDS_P1;SDS_P2;PMS_P1;PMS_P2;Temp;Humidity;BMP_temperature;BMP_pressure;BME280_temperature;BME280_humidity;BME280_pressure;Samples;Min_cycle;Max_cycle;Signal;HPM_P1;HPM_P2
2022/08/25 00:01:59;;;;;;;3.63;2.90;;;24.60;99.90;;;;;;7342226;19;110738;-76
2022/08/25 00:04:29;;;;;;;5.97;3.72;;;24.60;99.90;;;;;;7344115;19;110514;-76
2022/08/25 00:06:56;;;;;;;6.10;3.50;;;24.60;99.90;;;;;;7343947;19;109836;-77
2022/08/25 00:09:29;;;;;;;7.57;3.85;;;24.50;99.90;;;;;;7344505;19;110670;-76
2022/08/25 00:11:57;;;;;;;11.30;4.43;;;24.40;99.90;;;;;;7349065;19;109489;-76
2022/08/25 00:14:32;;;;;;;8.63;4.10;;;24.30;99.90;;;;;;7343858;19;111186;-76
2022/08/25 00:17:00;;;;;;;9.48;4.63;;;24.30;99.90;;;;;;7344642;19;112249;-76
2022/08/25 00:19:30;;;;;;;6.75;4.47;;;24.20;99.90;;;;;;7343120;19;110460;-76
2022/08/25 00:21:59;;;;;;;8.98;4.35;;;24.10;99.90;;;;;;7344515;19;111379;-77
2022/08/25 00:24:27;;;;;;;8.23;4.93;;;24.10;99.90;;;;;;7343089;19;110023;-76
2022/08/25 00:26:56;;;;;;;7.32;4.90;;;24.10;99.90;;;;;;7342646;19;111711;-76
2022/08/25 00:29:27;;;;;;;8.85;4.20;;;24.00;99.90;;;;;;7343515;19;111978;-76
2022/08/25 00:31:55;;;;;;;5.60;4.95;;;23.90;99.90;;;;;;7342290;19;110311;-76
2022/08/25 00:34:26;;;;;;;5.32;4.80;;;23.80;99.90;;;;;;7348960;19;109426;-77
2022/08/25 00:36:54;;;;;;;8.88;5.15;;;23.80;99.90;;;;;;7343226;19;109852;-76
2022/08/25 00:39:22;;;;;;;5.82;5.10;;;23.80;99.90;;;;;;7340861;19;110354;-76
2022/08/25 00:41:52;;;;;;;8.05;4.20;;;23.70;99.90;;;;;;7342434;19;112618;-76
2022/08/25 00:44:19;;;;;;;6.47;4.60;;;23.70;99.90;;;;;;7343186;19;110405;-77
2022/08/25 00:46:49;;;;;;;8.40;4.93;;;23.70;99.90;;;;;;7342956;19;110445;-76
2022/08/25 00:49:21;;;;;;;7.43;4.18;;;23.70;99.90;;;;;;7341674;19;111437;-77
2022/08/25 00:52:04;;;;;;;8.98;4.63;;;23.70;99.90;;;;;;7341111;19;109076;-76
2022/08/25 00:54:39;;;;;;;7.60;4.85;;;23.70;99.90;;;;;;7343080;19;109443;-76
2022/08/25 00:57:09;;;;;;;7.75;4.55;;;23.70;99.90;;;;;;7344964;19;111600;-76
2022/08/25 00:59:36;;;;;;;5.78;3.75;;;23.70;99.90;;;;;;7342343;19;109933;-76
2022/08/25 01:02:06;;;;;;;7.30;3.83;;;23.80;99.90;;;;;;7342221;19;110263;-76
2022/08/25 01:04:39;;;;;;;8.18;4.55;;;23.80;99.90;;;;;;7343009;19;109419;-76
2022/08/25 01:07:17;;;;;;;8.98;4.20;;;23.80;99.90;;;;;;7340796;19;109745;-76
2022/08/25 01:09:46;;;;;;;8.27;4.20;;;23.80;99.90;;;;;;7342460;19;111449;-76
2022/08/25 01:12:13;;;;;;;6.75;3.92;;;23.80;99.90;;;;;;7340450;19;109508;-76
2022/08/25 01:14:45;;;;;;;4.88;3.78;;;23.80;99.90;;;;;;7342350;19;113394;-76
2022/08/25 01:17:13;;;;;;;4.05;3.67;;;23.80;99.90;;;;;;7341248;19;110514;-76
2022/08/25 01:19:40;;;;;;;9.88;4.10;;;23.80;99.90;;;;;;7347977;19;110458;-76
2022/08/25 01:22:10;;;;;;;6.03;4.00;;;23.80;99.90;;;;;;7341587;19;110659;-76
2022/08/25 01:24:46;;;;;;;5.60;3.88;;;23.80;99.90;;;;;;7343136;19;112069;-76
2022/08/25 01:27:13;;;;;;;5.95;4.10;;;23.80;99.90;;;;;;7341585;19;109939;-76
2022/08/25 01:29:40;;;;;;;7.47;4.20;;;23.80;99.90;;;;;;7341686;19;111259;-76
2022/08/25 01:32:10;;;;;;;5.80;4.40;;;23.70;99.90;;;;;;7342348;19;109825;-76
2022/08/25 01:34:41;;;;;;;10.45;4.15;;;23.70;99.90;;;;;;7342190;19;111477;-77
2022/08/25 01:37:11;;;;;;;8.32;4.40;;;23.70;99.90;;;;;;7341201;19;111332;-76
2022/08/25 01:39:39;;;;;;;14.35;5.00;;;23.70;99.90;;;;;;7339089;19;109406;-76
2022/08/25 01:42:10;;;;;;;12.13;4.78;;;23.60;99.90;;;;;;7346043;19;110555;-76
2022/08/25 01:44:42;;;;;;;12.13;5.03;;;23.60;99.90;;;;;;7337887;19;109884;-76
2022/08/25 01:47:10;;;;;;;9.90;4.82;;;23.60;99.90;;;;;;7338774;19;109601;-76
2022/08/25 01:49:37;;;;;;;8.65;4.10;;;23.50;99.90;;;;;;7340409;19;110746;-76
2022/08/25 01:52:23;;;;;;;14.00;4.45;;;23.50;99.90;;;;;;7340942;19;109862;-76
2022/08/25 01:54:50;;;;;;;14.35;5.10;;;23.50;99.90;;;;;;7341636;19;113494;-76
2022/08/25 01:57:17;;;;;;;13.88;4.70;;;23.40;99.90;;;;;;7340631;19;111114;-77
2022/08/25 01:59:44;;;;;;;9.32;5.20;;;23.40;99.90;;;;;;7340135;19;110202;-76
2022/08/25 02:02:11;;;;;;;9.32;4.95;;;23.30;99.90;;;;;;7346580;19;111059;-76
2022/08/25 02:04:39;;;;;;;8.02;4.97;;;23.30;99.90;;;;;;7340591;19;110000;-76
2022/08/25 02:07:10;;;;;;;7.18;5.10;;;23.30;99.90;;;;;;7340559;19;109456;-76
2022/08/25 02:09:37;;;;;;;11.43;5.00;;;23.20;99.90;;;;;;7339541;19;112197;-76
2022/08/25 02:12:05;;;;;;;7.70;5.15;;;23.10;99.90;;;;;;7340237;19;109716;-76
2022/08/25 02:14:34;;;;;;;11.48;5.43;;;23.10;99.90;;;;;;7339151;19;110462;-76
2022/08/25 02:17:03;;;;;;;13.00;5.20;;;23.10;99.90;;;;;;7340460;19;110816;-77
2022/08/25 02:19:31;;;;;;;9.90;4.97;;;23.00;99.90;;;;;;7337373;19;109525;-77
2022/08/25 02:21:59;;;;;;;11.88;4.78;;;23.10;99.90;;;;;;7341422;19;110770;-76
2022/08/25 02:24:26;;;;;;;9.57;4.85;;;23.00;99.90;;;;;;7342559;19;111406;-76
2022/08/25 02:26:54;;;;;;;12.50;5.60;;;23.00;99.90;;;;;;7340012;19;110012;-76
2022/08/25 02:29:21;;;;;;;7.50;4.57;;;23.00;99.90;;;;;;7338617;19;111372;-76
2022/08/25 02:31:48;;;;;;;12.05;4.90;;;23.10;99.90;;;;;;7337984;19;109354;-76
2022/08/25 02:34:16;;;;;;;9.30;4.57;;;23.00;99.90;;;;;;7338295;19;110456;-76
2022/08/25 02:36:46;;;;;;;9.82;4.78;;;23.10;99.90;;;;;;7338289;19;111199;-77
2022/08/25 02:39:13;;;;;;;16.88;4.93;;;23.00;99.90;;;;;;7335624;19;110756;-76
2022/08/25 02:41:40;;;;;;;15.18;5.57;;;23.00;99.90;;;;;;7338185;19;111817;-76
2022/08/25 02:44:08;;;;;;;12.88;4.63;;;23.00;99.90;;;;;;7339029;19;111522;-77
2022/08/25 02:46:36;;;;;;;13.90;4.47;;;23.00;99.90;;;;;;7344775;19;109994;-76
2022/08/25 02:49:05;;;;;;;11.65;4.50;;;23.00;99.90;;;;;;7338082;19;110999;-76
2022/08/25 02:51:35;;;;;;;11.85;3.75;;;23.00;99.90;;;;;;7339132;19;110353;-76
2022/08/25 02:54:03;;;;;;;11.55;4.35;;;23.00;99.90;;;;;;7338408;19;111207;-76
2022/08/25 02:56:31;;;;;;;7.57;3.80;;;23.00;99.90;;;;;;7336443;19;112263;-76
2022/08/25 02:58:59;;;;;;;7.45;4.07;;;22.90;99.90;;;;;;7338302;19;109575;-76
2022/08/25 03:01:27;;;;;;;9.32;4.35;;;22.90;99.90;;;;;;7335577;19;114147;-73
2022/08/25 03:03:55;;;;;;;7.22;3.95;;;22.90;99.90;;;;;;7333870;19;114976;-73
2022/08/25 03:06:23;;;;;;;6.65;3.95;;;22.90;99.90;;;;;;7338421;19;111106;-73
2022/08/25 03:08:51;;;;;;;7.72;4.35;;;22.80;99.90;;;;;;7342987;19;109867;-73
2022/08/25 03:11:19;;;;;;;11.15;4.03;;;22.70;99.90;;;;;;7338588;19;110792;-73
2022/08/25 03:13:49;;;;;;;6.82;3.92;;;22.70;99.90;;;;;;7335700;19;109884;-73
2022/08/25 03:16:17;;;;;;;10.27;4.25;;;22.70;99.90;;;;;;7338560;19;111782;-73
2022/08/25 03:18:44;;;;;;;7.80;4.25;;;22.60;99.90;;;;;;7336428;19;109311;-73
2022/08/25 03:21:12;;;;;;;5.93;4.05;;;22.60;99.90;;;;;;7338226;19;110778;-73
2022/08/25 03:23:42;;;;;;;10.07;4.10;;;22.50;99.90;;;;;;7338970;19;110941;-73
2022/08/25 03:28:55;;;;;;;8.70;3.80;;;22.40;99.90;;;;;;7337620;19;110735;-73
2022/08/25 03:31:25;;;;;;;8.30;3.90;;;22.40;99.90;;;;;;7343410;19;110125;-73
2022/08/25 03:33:53;;;;;;;6.35;4.20;;;22.40;99.90;;;;;;7338223;19;111853;-73
2022/08/25 03:36:20;;;;;;;10.68;4.13;;;22.30;99.90;;;;;;7337620;19;110139;-73
2022/08/25 03:38:47;;;;;;;7.85;4.07;;;22.20;99.90;;;;;;7337482;19;109585;-73
2022/08/25 03:41:23;;;;;;;8.27;3.63;;;22.20;99.90;;;;;;7335412;19;109876;-73
2022/08/25 03:43:54;;;;;;;9.07;4.00;;;22.20;99.90;;;;;;7337342;19;110579;-74
2022/08/25 03:46:27;;;;;;;8.45;3.92;;;22.10;99.90;;;;;;7337029;19;109483;-73
2022/08/25 03:48:55;;;;;;;6.00;3.47;;;22.10;99.90;;;;;;7336106;19;111429;-73
2022/08/25 03:51:24;;;;;;;5.20;3.50;;;22.10;99.90;;;;;;7337391;19;114067;-73
2022/08/25 03:53:51;;;;;;;5.28;3.70;;;22.10;99.90;;;;;;7341516;19;111835;-74
2022/08/25 03:56:18;;;;;;;7.47;4.00;;;22.00;99.90;;;;;;7337439;19;111269;-74
2022/08/25 03:58:46;;;;;;;6.10;3.78;;;22.00;99.90;;;;;;7335751;19;110855;-73
2022/08/25 04:01:14;;;;;;;7.75;3.70;;;22.00;99.90;;;;;;7335789;19;110878;-73
2022/08/25 04:03:44;;;;;;;7.47;3.47;;;22.00;99.90;;;;;;7337808;19;111649;-74
2022/08/25 04:06:12;;;;;;;5.57;3.45;;;21.90;99.90;;;;;;7337843;19;109727;-74
2022/08/25 04:08:39;;;;;;;6.00;3.35;;;21.90;99.90;;;;;;7337903;19;109516;-73
2022/08/25 04:11:13;;;;;;;3.70;3.25;;;21.90;99.90;;;;;;7335244;19;110758;-74
2022/08/25 04:13:41;;;;;;;5.70;3.72;;;21.90;99.90;;;;;;7342112;19;109598;-73
2022/08/25 04:16:14;;;;;;;8.07;3.97;;;21.80;99.90;;;;;;7337520;19;111161;-73
2022/08/25 04:18:42;;;;;;;22.05;4.32;;;21.80;99.90;;;;;;7337329;19;109617;-74
2022/08/25 04:21:11;;;;;;;20.20;3.92;;;21.80;99.90;;;;;;7335906;19;110477;-73
2022/08/25 04:23:42;;;;;;;9.57;2.72;;;21.70;99.90;;;;;;7336842;19;111053;-73
2022/08/25 04:26:16;;;;;;;6.88;3.22;;;21.70;99.90;;;;;;7337915;19;109751;-73
2022/08/25 04:28:43;;;;;;;7.15;3.20;;;21.70;99.90;;;;;;7334742;19;110489;-73
2022/08/25 04:31:13;;;;;;;7.72;3.35;;;21.60;99.90;;;;;;7336970;19;111230;-74
2022/08/25 04:33:40;;;;;;;4.05;2.88;;;21.60;99.90;;;;;;7335745;19;110065;-74
2022/08/25 04:36:10;;;;;;;6.60;3.17;;;21.60;99.90;;;;;;7341672;19;110522;-73
2022/08/25 04:38:40;;;;;;;7.15;3.58;;;21.60;99.90;;;;;;7333941;19;109674;-73
2022/08/25 04:41:11;;;;;;;9.20;3.20;;;21.60;99.80;;;;;;7336099;19;109482;-74
2022/08/25 04:43:40;;;;;;;7.93;3.70;;;21.60;99.80;;;;;;7340831;19;110311;-73
2022/08/25 04:46:11;;;;;;;11.20;3.97;;;21.50;99.90;;;;;;7343086;19;109933;-74
2022/08/25 04:48:39;;;;;;;7.80;3.67;;;21.50;99.90;;;;;;7343469;19;110058;-73
2022/08/25 04:51:08;;;;;;;7.68;3.42;;;21.50;99.90;;;;;;7342527;19;111528;-74
2022/08/25 04:53:35;;;;;;;12.07;3.40;;;21.40;99.90;;;;;;7342348;19;109862;-73
2022/08/25 04:56:11;;;;;;;11.35;4.03;;;21.40;99.90;;;;;;7342531;19;109525;-73
2022/08/25 04:58:39;;;;;;;7.72;3.60;;;21.40;99.90;;;;;;7346035;19;110167;-74
2022/08/25 05:01:10;;;;;;;9.00;3.42;;;21.30;99.90;;;;;;7342893;19;110480;-73
2022/08/25 05:03:38;;;;;;;7.53;3.70;;;21.30;99.90;;;;;;7341389;19;111151;-73
2022/08/25 05:06:05;;;;;;;12.30;4.13;;;21.30;99.90;;;;;;7341449;19;109736;-73
2022/08/25 05:08:33;;;;;;;6.95;3.55;;;21.20;99.90;;;;;;7341549;19;110670;-73
2022/08/25 05:11:16;;;;;;;7.18;3.60;;;21.20;99.90;;;;;;7343735;19;111543;-73
2022/08/25 05:13:45;;;;;;;13.55;3.95;;;21.20;99.90;;;;;;7341835;19;109422;-73
2022/08/25 05:16:18;;;;;;;8.90;3.72;;;21.20;99.90;;;;;;7342852;19;114341;-74
2022/08/25 05:18:46;;;;;;;13.02;4.00;;;21.20;99.90;;;;;;7342711;19;110753;-73
2022/08/25 05:21:17;;;;;;;32.97;4.00;;;21.20;99.90;;;;;;7347698;19;110028;-73
2022/08/25 05:23:46;;;;;;;17.50;4.10;;;21.20;99.90;;;;;;7339626;19;112265;-73
2022/08/25 05:26:16;;;;;;;13.23;3.80;;;21.20;99.90;;;;;;7342833;19;110227;-73
2022/08/25 05:28:50;;;;;;;9.52;3.63;;;21.20;99.90;;;;;;7341321;19;110438;-73
2022/08/25 05:31:18;;;;;;;11.02;3.67;;;21.20;99.90;;;;;;7339379;19;110815;-73
2022/08/25 05:33:46;;;;;;;13.23;3.78;;;21.30;99.90;;;;;;7342042;19;109767;-73
2022/08/25 05:36:14;;;;;;;14.63;3.63;;;21.30;99.90;;;;;;7341529;19;110437;-74
2022/08/25 05:38:42;;;;;;;54.83;4.97;;;21.40;99.90;;;;;;7339348;19;109732;-73
2022/08/25 05:41:19;;;;;;;42.78;4.72;;;21.50;99.90;;;;;;7340015;19;111219;-73
2022/08/25 05:43:48;;;;;;;63.90;4.85;;;21.60;99.90;;;;;;7347338;19;110789;-74
2022/08/25 05:46:17;;;;;;;23.23;3.70;;;21.70;99.90;;;;;;7342049;19;109306;-73
2022/08/25 05:48:44;;;;;;;12.07;3.53;;;21.70;99.90;;;;;;7341824;19;109558;-73
2022/08/25 05:51:13;;;;;;;17.05;3.05;;;21.90;99.90;;;;;;7341289;19;110174;-73
2022/08/25 05:53:43;;;;;;;17.10;3.05;;;22.00;99.90;;;;;;7336718;19;109763;-73
2022/08/25 05:56:12;;;;;;;10.60;3.50;;;22.00;99.90;;;;;;7338774;19;110561;-73
2022/08/25 05:58:41;;;;;;;15.05;3.45;;;22.10;99.80;;;;;;7340105;19;111317;-73
2022/08/25 06:03:54;;;;;;;10.90;2.95;;;22.30;99.70;;;;;;7339916;19;110528;-74
2022/08/25 06:06:23;;;;;;;7.68;2.80;;;22.40;99.50;;;;;;7345856;19;110611;-73
2022/08/25 06:08:50;;;;;;;6.35;2.85;;;22.50;99.40;;;;;;7340209;19;110390;-73
2022/08/25 06:11:18;;;;;;;9.25;2.60;;;22.50;99.40;;;;;;7341641;19;111346;-73
2022/08/25 06:13:45;;;;;;;5.38;2.33;;;22.70;99.40;;;;;;7338056;19;109586;-74
2022/08/25 06:16:12;;;;;;;7.88;2.38;;;22.80;99.10;;;;;;7341050;19;110391;-74
2022/08/25 06:18:39;;;;;;;4.05;2.63;;;22.80;99.20;;;;;;7341158;19;113798;-73
2022/08/25 06:21:12;;;;;;;5.55;2.75;;;23.00;99.20;;;;;;7338399;19;109557;-73
2022/08/25 06:23:40;;;;;;;5.10;2.78;;;23.00;98.70;;;;;;7341127;19;112117;-73
2022/08/25 06:26:11;;;;;;;7.68;2.35;;;23.10;98.60;;;;;;7344095;19;110190;-73
2022/08/25 06:28:46;;;;;;;6.35;2.35;;;23.30;98.40;;;;;;7339282;19;111645;-73
2022/08/25 06:31:13;;;;;;;4.28;2.05;;;23.40;98.10;;;;;;7339239;19;112353;-73
2022/08/25 06:33:41;;;;;;;12.20;2.45;;;23.40;98.10;;;;;;7341420;19;109710;-74
2022/08/25 06:36:08;;;;;;;5.75;2.38;;;23.60;97.90;;;;;;7337608;19;110199;-74
2022/08/25 06:38:35;;;;;;;7.88;2.22;;;23.70;97.80;;;;;;7338721;19;110785;-73
2022/08/25 06:41:04;;;;;;;5.70;2.17;;;23.80;97.50;;;;;;7341108;19;110087;-73
2022/08/25 06:43:32;;;;;;;7.97;2.20;;;23.90;97.40;;;;;;7340725;19;113881;-73
2022/08/25 06:46:15;;;;;;;3.40;2.20;;;23.90;97.30;;;;;;7339436;19;111347;-74
2022/08/25 06:48:46;;;;;;;7.60;2.08;;;24.10;97.20;;;;;;7346617;19;110427;-74
2022/08/25 06:51:16;;;;;;;4.18;2.22;;;24.20;97.20;;;;;;7340026;19;111150;-73
2022/08/25 06:53:46;;;;;;;4.65;2.00;;;24.30;96.80;;;;;;7340677;19;109478;-73
2022/08/25 06:56:15;;;;;;;4.35;2.30;;;24.30;96.70;;;;;;7336649;19;110825;-73
2022/08/25 06:58:42;;;;;;;6.72;2.05;;;24.30;96.70;;;;;;7338223;19;113945;-74
2022/08/25 07:01:14;;;;;;;6.55;2.05;;;24.40;96.60;;;;;;7338443;19;109430;-74
2022/08/25 07:03:46;;;;;;;14.48;2.72;;;24.50;96.40;;;;;;7336757;19;109619;-73
2022/08/25 07:06:14;;;;;;;11.70;2.40;;;24.50;96.30;;;;;;7337426;19;111491;-73
2022/08/25 07:08:45;;;;;;;8.85;2.33;;;24.60;96.20;;;;;;7338310;19;109672;-73
2022/08/25 07:11:15;;;;;;;14.55;2.08;;;24.70;96.10;;;;;;7343832;19;112672;-74
2022/08/25 07:13:44;;;;;;;11.85;2.35;;;24.80;95.90;;;;;;7339233;19;110301;-74
2022/08/25 07:16:14;;;;;;;7.95;2.00;;;24.80;95.90;;;;;;7336498;19;110406;-73
2022/08/25 07:18:42;;;;;;;6.22;2.10;;;24.90;96.10;;;;;;7338175;19;110843;-73
2022/08/25 07:21:11;;;;;;;4.35;2.20;;;24.90;95.80;;;;;;7338408;19;109609;-73
2022/08/25 07:23:42;;;;;;;7.10;2.17;;;24.90;95.70;;;;;;7337872;19;110463;-74
2022/08/25 07:26:25;;;;;;;5.05;2.17;;;25.00;95.60;;;;;;7337537;19;114855;-73
2022/08/25 07:29:07;;;;;;;3.20;1.67;;;25.10;95.60;;;;;;7336414;19;109607;-73
2022/08/25 07:31:35;;;;;;;8.88;2.28;;;25.10;95.60;;;;;;7339463;19;111032;-73
2022/08/25 07:36:51;;;;;;;8.75;1.80;;;25.40;95.40;;;;;;7339038;19;110789;-74
2022/08/25 07:39:18;;;;;;;9.15;2.40;;;25.50;95.30;;;;;;7334425;19;111199;-74
2022/08/25 07:41:48;;;;;;;4.40;2.00;;;25.60;95.10;;;;;;7337091;19;110543;-73
2022/08/25 07:44:20;;;;;;;4.47;2.00;;;25.70;95.00;;;;;;7336933;19;109598;-73
2022/08/25 07:46:48;;;;;;;7.85;1.92;;;25.80;94.90;;;;;;7337473;19;110177;-72
2022/08/25 07:49:17;;;;;;;4.68;2.03;;;25.90;95.20;;;;;;7336283;19;109682;-73
2022/08/25 07:51:50;;;;;;;5.93;2.10;;;26.00;94.70;;;;;;7336794;19;109894;-73
2022/08/25 07:54:33;;;;;;;10.15;2.15;;;26.10;94.40;;;;;;7334144;19;111777;-73
2022/08/25 07:57:06;;;;;;;4.78;1.85;;;26.10;94.20;;;;;;7341094;19;109186;-73
2022/08/25 07:59:34;;;;;;;8.48;1.90;;;26.20;94.20;;;;;;7336861;19;111238;-73
2022/08/25 08:02:11;;;;;;;3.67;1.98;;;26.20;93.90;;;;;;7337888;19;109952;-73
2022/08/25 08:04:48;;;;;;;4.18;2.17;;;26.30;94.00;;;;;;7337005;19;110488;-72
2022/08/25 08:07:21;;;;;;;20.80;4.00;;;26.40;93.90;;;;;;7336914;19;111163;-73
2022/08/25 08:09:49;;;;;;;7.55;2.00;;;26.50;94.10;;;;;;7337167;19;110604;-74
2022/08/25 08:12:37;;;;;;;10.43;1.63;;;26.50;93.90;;;;;;7337097;19;111736;-73
2022/08/25 08:15:05;;;;;;;7.63;1.90;;;26.60;93.50;;;;;;7336090;19;112350;-75
2022/08/25 08:17:36;;;;;;;6.78;2.00;;;26.70;93.50;;;;;;7337268;19;109332;-73
2022/08/25 08:20:07;;;;;;;3.03;1.77;;;26.70;93.30;;;;;;7347579;19;111935;-74
2022/08/25 08:22:36;;;;;;;6.40;1.80;;;26.80;92.90;;;;;;7342798;19;109574;-76
2022/08/25 08:25:06;;;;;;;11.57;2.20;;;26.90;92.60;;;;;;7343788;19;109711;-77
2022/08/25 08:27:36;;;;;;;5.22;1.58;;;26.90;92.80;;;;;;7343344;19;110447;-77
2022/08/25 08:30:05;;;;;;;2.75;1.85;;;27.00;92.70;;;;;;7343141;19;109342;-74
2022/08/25 08:32:32;;;;;;;2.90;1.55;;;27.10;92.70;;;;;;7344693;19;110511;-75
2022/08/25 08:35:19;;;;;;;12.02;1.70;;;27.20;92.90;;;;;;7342749;19;113184;-74
2022/08/25 08:37:47;;;;;;;6.78;1.80;;;27.20;92.10;;;;;;7343524;19;109778;-75
2022/08/25 08:40:19;;;;;;;5.28;1.80;;;27.30;91.90;;;;;;7346722;19;110494;-74
2022/08/25 08:43:05;;;;;;;2.35;1.40;;;27.50;91.80;;;;;;7343547;19;109760;-79
2022/08/25 08:45:50;;;;;;;5.57;1.73;;;27.60;91.40;;;;;;7344260;19;110245;-74
2022/08/25 08:48:28;;;;;;;4.97;1.80;;;27.70;91.30;;;;;;7344571;19;109934;-75
2022/08/25 08:51:23;;;;;;;6.18;1.52;;;27.80;91.60;;;;;;7344364;19;109233;-74
2022/08/25 08:54:10;;;;;;;9.27;1.95;;;28.00;90.20;;;;;;7339165;19;109452;-75
2022/08/25 08:56:46;;;;;;;6.22;2.10;;;28.10;90.80;;;;;;7339893;19;110020;-75
2022/08/25 08:59:24;;;;;;;3.05;1.52;;;28.20;90.40;;;;;;7339288;19;110398;-73
2022/08/25 09:02:01;;;;;;;2.80;1.70;;;28.40;90.50;;;;;;7342134;19;109506;-75
2022/08/25 09:04:47;;;;;;;3.13;1.60;;;28.50;90.70;;;;;;7344911;19;110108;-74
2022/08/25 09:07:20;;;;;;;3.47;1.60;;;28.70;90.50;;;;;;7342464;19;109383;-74
2022/08/25 09:09:47;;;;;;;3.38;1.60;;;28.80;90.00;;;;;;7342532;19;111401;-76
2022/08/25 09:12:40;;;;;;;3.70;1.65;;;28.90;89.00;;;;;;7344460;19;109289;-74
2022/08/25 09:16:53;;;;;;;6.78;1.60;;;29.00;87.00;;;;;;7337017;19;111474;-74
2022/08/25 09:18:43;;;;;;;5.57;1.67;;;29.00;87.40;;;;;;7338327;19;110600;-74
2022/08/25 09:21:34;;;;;;;2.58;1.55;;;29.10;86.10;;;;;;7339828;19;109411;-74
2022/08/25 09:24:22;;;;;;;6.75;1.70;;;29.10;87.20;;;;;;7343311;19;113412;-73
2022/08/25 09:27:24;;;;;;;6.82;1.55;;;29.20;87.00;;;;;;7342871;19;110212;-74
2022/08/25 09:29:59;;;;;;;7.13;1.60;;;29.30;86.70;;;;;;7345502;19;109353;-73
2022/08/25 09:32:35;;;;;;;9.65;1.70;;;29.40;86.40;;;;;;7340174;19;115205;-74
2022/08/25 09:35:16;;;;;;;4.15;1.55;;;29.50;86.60;;;;;;7342582;19;111332;-74
2022/08/25 09:37:58;;;;;;;3.20;1.40;;;29.60;86.30;;;;;;7341037;19;110506;-73
2022/08/25 09:40:27;;;;;;;6.88;1.60;;;29.80;85.40;;;;;;7340297;19;110171;-74
2022/08/25 09:42:58;;;;;;;4.65;1.48;;;29.90;85.80;;;;;;7341355;19;109822;-73
2022/08/25 09:45:42;;;;;;;3.58;1.52;;;30.00;84.20;;;;;;7341488;19;109968;-73
2022/08/25 09:48:24;;;;;;;3.15;1.65;;;30.20;84.00;;;;;;7341226;19;111146;-74
2022/08/25 09:50:58;;;;;;;5.28;1.60;;;30.30;81.90;;;;;;7340183;19;109331;-74
2022/08/25 09:53:27;;;;;;;3.13;1.70;;;30.30;82.30;;;;;;7335057;19;112763;-74
2022/08/25 09:56:04;;;;;;;6.55;1.35;;;30.40;82.30;;;;;;7328070;19;110288;-74
2022/08/25 09:58:32;;;;;;;2.70;1.50;;;30.40;81.10;;;;;;7339040;19;110693;-74
2022/08/25 10:01:05;;;;;;;5.40;1.70;;;30.60;80.70;;;;;;7340811;19;111162;-74
2022/08/25 10:03:33;;;;;;;5.57;1.70;;;30.60;81.10;;;;;;7341193;19;110827;-73
2022/08/25 10:06:10;;;;;;;9.73;1.42;;;30.80;79.70;;;;;;7340360;19;110810;-73
2022/08/25 10:08:39;;;;;;;8.05;1.63;;;30.90;78.90;;;;;;7340745;19;112280;-73
2022/08/25 10:11:13;;;;;;;5.30;1.60;;;31.00;79.20;;;;;;7339029;19;109923;-74
2022/08/25 10:13:45;;;;;;;6.55;1.38;;;31.10;77.50;;;;;;7339818;19;110111;-73
2022/08/25 10:16:31;;;;;;;7.32;1.60;;;31.20;78.10;;;;;;7344653;19;111210;-74
2022/08/25 10:19:12;;;;;;;4.15;1.20;;;31.30;76.10;;;;;;7339046;19;111000;-73
2022/08/25 10:21:41;;;;;;;4.40;1.40;;;31.40;75.30;;;;;;7340190;19;110236;-73
2022/08/25 10:24:12;;;;;;;4.50;1.30;;;31.40;73.40;;;;;;7341131;19;109631;-74
2022/08/25 10:27:14;;;;;;;4.22;1.40;;;31.50;73.90;;;;;;7336526;19;110060;-74
2022/08/25 10:29:54;;;;;;;3.35;0.90;;;31.60;72.70;;;;;;7334515;19;111579;-74
2022/08/25 10:32:57;;;;;;;3.38;1.20;;;31.80;72.30;;;;;;7336237;19;110283;-74
2022/08/25 10:35:27;;;;;;;3.95;1.15;;;31.90;73.30;;;;;;7335558;19;110636;-73
2022/08/25 10:38:28;;;;;;;4.15;1.20;;;32.00;71.70;;;;;;7335121;19;111461;-73
2022/08/25 10:41:38;;;;;;;1.52;1.10;;;32.10;70.30;;;;;;7339742;19;109599;-74
2022/08/25 10:47:39;;;;;;;5.43;1.30;;;32.30;65.60;;;;;;7335833;19;109205;-74
2022/08/25 10:50:22;;;;;;;5.18;1.17;;;32.20;65.20;;;;;;7334200;19;110906;-74
2022/08/25 10:53:13;;;;;;;2.45;1.20;;;32.20;67.10;;;;;;7335017;19;110451;-73
2022/08/25 10:55:54;;;;;;;7.57;1.50;;;32.40;67.00;;;;;;7334246;19;109828;-73
2022/08/25 10:58:49;;;;;;;2.65;1.10;;;32.50;68.40;;;;;;7335574;19;112037;-73
2022/08/25 11:01:41;;;;;;;4.93;1.30;;;32.70;62.30;;;;;;7336365;19;114283;-74
2022/08/25 11:04:26;;;;;;;4.93;1.30;;;32.70;63.60;;;;;;7340709;19;109803;-73
2022/08/25 11:06:59;;;;;;;5.95;1.40;;;32.80;61.80;;;;;;7337938;19;111799;-74
2022/08/25 11:09:37;;;;;;;6.97;1.58;;;32.90;63.50;;;;;;7340261;19;109414;-73
2022/08/25 11:12:28;;;;;;;3.38;1.55;;;33.00;63.70;;;;;;7339384;19;110788;-74
2022/08/25 11:15:16;;;;;;;9.40;1.83;;;33.00;60.60;;;;;;7338664;19;111844;-73
2022/08/25 11:18:02;;;;;;;5.00;1.60;;;33.00;63.10;;;;;;7335543;19;110904;-73
2022/08/25 11:20:50;;;;;;;5.00;1.30;;;33.10;63.10;;;;;;7339166;19;110131;-74
2022/08/25 11:23:34;;;;;;;5.57;1.50;;;33.20;60.60;;;;;;7339898;19;114586;-74
2022/08/25 11:26:10;;;;;;;3.17;1.48;;;33.30;60.70;;;;;;7338109;19;109611;-73
2022/08/25 11:29:13;;;;;;;4.90;1.70;;;33.50;62.10;;;;;;7341843;19;109389;-74
2022/08/25 11:31:45;;;;;;;6.47;1.30;;;33.70;62.90;;;;;;7338579;19;109309;-73
2022/08/25 11:34:19;;;;;;;3.53;1.35;;;33.80;61.10;;;;;;7339165;19;110428;-74
2022/08/25 11:36:56;;;;;;;6.07;1.33;;;33.80;58.50;;;;;;7334601;19;111268;-74
2022/08/25 11:39:41;;;;;;;4.10;1.52;;;33.80;59.30;;;;;;7337150;19;109627;-73
2022/08/25 11:42:42;;;;;;;3.90;1.30;;;33.80;59.10;;;;;;7338225;19;112597;-73
2022/08/25 11:45:38;;;;;;;7.05;1.60;;;33.90;57.70;;;;;;7335951;19;110278;-73
2022/08/25 11:48:05;;;;;;;4.03;1.60;;;34.00;59.60;;;;;;7336204;19;110681;-74
2022/08/25 11:50:56;;;;;;;5.80;1.55;;;34.10;58.40;;;;;;7336798;19;110400;-75
2022/08/25 11:53:36;;;;;;;1.92;1.38;;;34.30;58.60;;;;;;7348146;19;110440;-76
2022/08/25 11:56:30;;;;;;;1.95;1.75;;;34.40;58.90;;;;;;7343074;19;110831;-75
2022/08/25 11:58:58;;;;;;;7.22;1.67;;;34.50;59.80;;;;;;7343573;19;111160;-77
2022/08/25 12:01:43;;;;;;;4.78;1.70;;;34.60;58.10;;;;;;7344591;19;110236;-75
2022/08/25 12:04:40;;;;;;;5.13;1.70;;;34.60;57.10;;;;;;7344323;19;110408;-74
2022/08/25 12:07:16;;;;;;;5.63;1.83;;;34.60;54.00;;;;;;7343373;19;112150;-78
2022/08/25 12:09:50;;;;;;;2.97;1.80;;;34.40;55.70;;;;;;7344660;19;110645;-76
2022/08/25 12:12:40;;;;;;;5.85;1.58;;;34.60;57.00;;;;;;7344119;19;110408;-76
2022/08/25 12:15:38;;;;;;;6.22;1.70;;;34.70;54.80;;;;;;7342320;19;110163;-75
2022/08/25 12:18:11;;;;;;;;;;;34.70;53.50;;;;;;7345257;19;109968;-75
2022/08/25 12:20:55;;;;;;;6.25;1.50;;;34.70;56.00;;;;;;7347902;19;110777;-74
2022/08/25 12:23:34;;;;;;;7.13;1.70;;;34.90;55.70;;;;;;7343822;19;109173;-73
2022/08/25 12:26:08;;;;;;;11.82;1.90;;;35.10;52.90;;;;;;7343499;19;109623;-75
2022/08/25 12:29:00;;;;;;;6.67;1.77;;;34.90;52.10;;;;;;7343691;19;111132;-74
2022/08/25 12:31:51;;;;;;;4.85;1.50;;;35.00;55.00;;;;;;7343759;19;109631;-74
2022/08/25 12:34:30;;;;;;;6.70;1.90;;;35.20;55.90;;;;;;7342763;19;111807;-74
2022/08/25 12:37:10;;;;;;;8.80;2.30;;;35.40;53.30;;;;;;7340307;19;110209;-75
2022/08/25 12:39:52;;;;;;;4.88;1.65;;;35.50;54.80;;;;;;7343621;19;109760;-74
2022/08/25 12:42:30;;;;;;;4.03;1.70;;;35.70;54.40;;;;;;7349828;19;110512;-75
2022/08/25 12:45:14;;;;;;;3.58;1.48;;;35.90;53.00;;;;;;7342242;19;109347;-76
2022/08/25 12:47:46;;;;;;;2.08;1.80;;;36.10;53.70;;;;;;7343697;19;109974;-75
2022/08/25 12:50:39;;;;;;;4.05;1.70;;;36.30;54.10;;;;;;7344172;19;112236;-74
2022/08/25 12:53:23;;;;;;;1.73;1.48;;;36.50;53.10;;;;;;7340728;19;112053;-74
2022/08/25 12:56:06;;;;;;;4.45;1.80;;;36.70;52.20;;;;;;7341817;19;110643;-74
2022/08/25 12:58:49;;;;;;;5.60;1.73;;;36.60;51.40;;;;;;7341479;19;110360;-77
2022/08/25 13:01:47;;;;;;;8.00;1.70;;;37.00;50.00;;;;;;7338173;19;109702;-76
2022/08/25 13:04:48;;;;;;;5.15;1.80;;;37.20;51.50;;;;;;7342623;19;110422;-77
2022/08/25 13:07:48;;;;;;;3.35;1.52;;;37.30;49.90;;;;;;7338997;19;109278;-76
2022/08/25 13:10:24;;;;;;;2.75;1.80;;;37.40;48.80;;;;;;7338462;19;110384;-76
2022/08/25 13:13:09;;;;;;;3.17;1.67;;;37.60;49.50;;;;;;7340711;19;114569;-77
2022/08/25 13:15:40;;;;;;;4.82;1.83;;;37.90;50.00;;;;;;7339196;19;110178;-77
2022/08/25 13:18:16;;;;;;;4.13;1.88;;;38.00;48.80;;;;;;7341359;19;110415;-77
2022/08/25 13:20:45;;;;;;;5.18;1.85;;;38.00;47.80;;;;;;7341655;19;110422;-77
2022/08/25 13:23:18;;;;;;;4.55;1.95;;;37.90;48.60;;;;;;7340400;19;109776;-77